createdAt,value
2019-06-15T00:01:49.237Z,10.90
2019-06-15T00:04:18.172Z,9.80
2019-06-15T00:06:47.144Z,9.30
2019-06-15T00:09:18.333Z,9.07
2019-06-15T00:11:49.558Z,8.90
2019-06-15T00:14:21.484Z,8.57
2019-06-15T00:16:50.436Z,8.33
2019-06-15T00:19:19.409Z,9.40
2019-06-15T00:21:48.381Z,8.90
2019-06-15T00:24:17.412Z,8.40
2019-06-15T00:26:46.297Z,8.87
2019-06-15T00:29:15.296Z,9.37
2019-06-15T00:31:44.269Z,8.83
2019-06-15T00:34:13.210Z,9.60
2019-06-15T00:36:42.126Z,9.13
2019-06-15T00:39:11.147Z,9.63
2019-06-15T00:41:40.211Z,9.40
2019-06-15T00:44:09.247Z,9.13
2019-06-15T00:46:38.158Z,9.20
2019-06-15T00:49:07.141Z,9.70
2019-06-15T00:51:36.072Z,9.80
2019-06-15T00:54:05.141Z,9.80
2019-06-15T00:56:33.989Z,9.80
2019-06-15T00:59:03.116Z,8.97
2019-06-15T01:01:34.769Z,9.80
2019-06-15T01:04:02.980Z,9.50
2019-06-15T01:06:32.036Z,9.57
2019-06-15T01:09:01.050Z,9.00
2019-06-15T01:11:29.949Z,8.93
2019-06-15T01:13:58.967Z,9.90
2019-06-15T01:16:28.035Z,9.83
2019-06-15T01:18:57.017Z,10.17
2019-06-15T01:21:26.064Z,9.47
2019-06-15T01:23:55.066Z,9.50
2019-06-15T01:26:24.133Z,10.27
2019-06-15T01:28:53.104Z,10.27
2019-06-15T01:31:22.062Z,9.93
2019-06-15T01:33:50.991Z,9.63
2019-06-15T01:36:20.552Z,9.47
2019-06-15T01:38:49.405Z,9.03
2019-06-15T01:41:18.337Z,9.40
2019-06-15T01:43:47.454Z,10.10
2019-06-15T01:46:16.486Z,8.77
2019-06-15T01:48:45.601Z,9.50
2019-06-15T01:51:14.591Z,9.47
2019-06-15T01:53:43.520Z,9.50
2019-06-15T01:56:12.545Z,9.57
2019-06-15T01:58:42.023Z,8.87
2019-06-15T02:01:10.985Z,10.23
2019-06-15T02:03:39.960Z,9.60
2019-06-15T02:06:08.969Z,10.10
2019-06-15T02:08:37.932Z,8.83
2019-06-15T02:11:07.058Z,10.07
2019-06-15T02:13:35.894Z,9.93
2019-06-15T02:16:05.211Z,9.03
2019-06-15T02:18:34.113Z,9.67
2019-06-15T02:21:03.019Z,9.77
2019-06-15T02:23:32.163Z,8.97
2019-06-15T02:26:01.163Z,10.07
2019-06-15T02:28:30.116Z,9.17
2019-06-15T02:30:59.179Z,9.37
2019-06-15T02:33:28.098Z,10.30
2019-06-15T02:35:57.147Z,9.83
2019-06-15T02:38:26.116Z,10.20
2019-06-15T02:40:55.149Z,10.80
2019-06-15T02:43:24.571Z,9.67
2019-06-15T02:45:53.540Z,10.27
2019-06-15T02:48:22.561Z,9.80
2019-06-15T02:50:51.728Z,9.00
2019-06-15T02:53:20.602Z,9.87
2019-06-15T02:55:50.906Z,9.40
2019-06-15T02:58:20.329Z,10.70
2019-06-15T03:01:02.546Z,9.93
2019-06-15T03:03:31.579Z,10.37
2019-06-15T03:06:00.991Z,9.37
2019-06-15T03:08:30.190Z,9.90
2019-06-15T03:10:59.197Z,10.33
2019-06-15T03:13:28.348Z,10.40
2019-06-15T03:15:57.400Z,10.50
2019-06-15T03:18:26.386Z,10.27
2019-06-15T03:20:55.279Z,10.07
2019-06-15T03:23:24.407Z,9.57
2019-06-15T03:26:05.096Z,9.70
2019-06-15T03:28:24.193Z,10.93
2019-06-15T03:30:53.301Z,10.43
2019-06-15T03:33:22.282Z,10.37
2019-06-15T03:35:51.324Z,10.63
2019-06-15T03:38:20.228Z,10.80
2019-06-15T03:40:49.222Z,11.53
2019-06-15T03:43:18.572Z,10.63
2019-06-15T03:45:47.639Z,10.93
2019-06-15T03:48:16.616Z,10.50
2019-06-15T03:50:45.628Z,10.07
2019-06-15T03:53:14.620Z,10.00
2019-06-15T03:55:43.876Z,10.37
2019-06-15T03:58:12.896Z,10.63
2019-06-15T04:01:10.464Z,10.43
2019-06-15T04:03:41.246Z,10.37
2019-06-15T04:06:10.293Z,10.73
2019-06-15T04:08:39.174Z,11.17
2019-06-15T04:11:08.096Z,11.10
2019-06-15T04:13:37.272Z,10.33
2019-06-15T04:16:06.332Z,10.97
2019-06-15T04:18:35.354Z,10.23
2019-06-15T04:21:04.517Z,11.50
2019-06-15T04:23:33.561Z,10.70
2019-06-15T04:26:02.725Z,11.83
2019-06-15T04:28:31.927Z,10.47
2019-06-15T04:31:00.775Z,10.30
2019-06-15T04:33:30.039Z,11.47
2019-06-15T04:35:59.223Z,10.90
2019-06-15T04:38:28.276Z,11.40
2019-06-15T04:40:57.944Z,10.20
2019-06-15T04:43:27.264Z,10.03
2019-06-15T04:45:56.307Z,12.13
2019-06-15T04:48:25.371Z,15.30
2019-06-15T04:50:54.310Z,12.30
2019-06-15T04:53:23.326Z,12.27
2019-06-15T04:55:52.370Z,14.13
2019-06-15T04:58:21.462Z,12.43
2019-06-15T05:00:50.501Z,12.50
2019-06-15T05:03:19.598Z,10.63
2019-06-15T05:05:48.794Z,15.07
2019-06-15T05:08:18.181Z,15.73
2019-06-15T05:10:47.604Z,13.97
2019-06-15T05:13:17.082Z,11.80
2019-06-15T05:15:46.460Z,11.27
2019-06-15T05:18:15.740Z,10.97
2019-06-15T05:20:44.696Z,11.10
2019-06-15T05:23:16.250Z,11.13
2019-06-15T05:25:45.890Z,12.10
2019-06-15T05:28:15.278Z,13.63
2019-06-15T05:30:44.236Z,11.87
2019-06-15T05:33:13.397Z,11.27
2019-06-15T05:35:42.362Z,10.90
2019-06-15T05:38:11.933Z,13.23
2019-06-15T05:40:43.177Z,16.30
2019-06-15T05:43:12.986Z,12.47
2019-06-15T05:45:42.157Z,10.87
2019-06-15T05:48:11.362Z,11.10
2019-06-15T05:50:40.789Z,10.83
2019-06-15T05:53:10.132Z,9.70
2019-06-15T05:55:39.653Z,10.13
2019-06-15T05:58:08.733Z,9.47
2019-06-15T06:00:37.894Z,10.77
2019-06-15T06:03:07.145Z,9.83
2019-06-15T06:05:36.524Z,12.47
2019-06-15T06:08:09.151Z,12.17
2019-06-15T06:10:38.474Z,10.53
2019-06-15T06:13:07.707Z,10.00
2019-06-15T06:15:36.989Z,10.13
2019-06-15T06:18:06.606Z,9.80
2019-06-15T06:20:36.475Z,10.20
2019-06-15T06:23:05.933Z,9.87
2019-06-15T06:25:35.412Z,9.57
2019-06-15T06:28:05.652Z,9.60
2019-06-15T06:30:34.815Z,10.33
2019-06-15T06:33:04.040Z,9.30
2019-06-15T06:35:33.284Z,9.13
2019-06-15T06:38:02.400Z,9.00
2019-06-15T06:40:31.407Z,10.47
2019-06-15T06:43:00.627Z,10.17
2019-06-15T06:45:30.112Z,9.93
2019-06-15T06:47:59.376Z,9.97
2019-06-15T06:50:28.740Z,9.63
2019-06-15T06:52:57.992Z,9.87
2019-06-15T06:55:27.290Z,10.23
2019-06-15T06:57:57.384Z,10.40
2019-06-15T07:00:27.541Z,10.30
2019-06-15T07:02:56.732Z,10.47
2019-06-15T07:05:26.359Z,9.97
2019-06-15T07:07:55.364Z,11.07
2019-06-15T07:10:24.464Z,10.70
2019-06-15T07:12:53.598Z,10.70
2019-06-15T07:15:22.945Z,11.40
2019-06-15T07:17:52.085Z,11.07
2019-06-15T07:20:21.535Z,9.90
2019-06-15T07:22:50.578Z,9.87
2019-06-15T07:25:19.643Z,11.73
2019-06-15T07:27:48.665Z,12.80
2019-06-15T07:30:18.233Z,11.73
2019-06-15T07:32:47.427Z,10.63
2019-06-15T07:35:16.774Z,10.13
2019-06-15T07:37:45.982Z,10.45
2019-06-15T07:40:15.216Z,9.90
2019-06-15T07:42:47.584Z,10.93
2019-06-15T07:45:17.113Z,10.27
2019-06-15T07:47:46.131Z,9.67
2019-06-15T07:50:15.355Z,10.17
2019-06-15T07:52:45.170Z,10.13
2019-06-15T07:55:14.374Z,11.10
2019-06-15T07:57:43.702Z,10.35
2019-06-15T08:00:13.001Z,11.10
2019-06-15T08:02:42.133Z,14.03
2019-06-15T08:05:11.639Z,11.97
2019-06-15T08:07:40.936Z,11.67
2019-06-15T08:10:10.238Z,10.73
2019-06-15T08:12:39.101Z,10.80
2019-06-15T08:15:09.522Z,10.70
2019-06-15T08:17:38.637Z,11.23
2019-06-15T08:20:10.531Z,11.83
2019-06-15T08:22:39.749Z,10.27
2019-06-15T08:25:09.851Z,12.57
2019-06-15T08:27:39.573Z,15.40
2019-06-15T08:30:10.338Z,12.80
2019-06-15T08:32:39.757Z,12.63
2019-06-15T08:35:09.680Z,11.57
2019-06-15T08:37:39.779Z,10.93
2019-06-15T08:40:09.418Z,11.33
2019-06-15T08:42:38.631Z,11.93
2019-06-15T08:45:09.478Z,11.30
2019-06-15T08:47:38.946Z,12.30
2019-06-15T08:50:08.254Z,12.10
2019-06-15T08:52:37.301Z,12.47
2019-06-15T08:55:07.415Z,12.50
2019-06-15T08:57:36.645Z,13.17
2019-06-15T09:00:07.231Z,13.38
2019-06-15T09:02:36.391Z,12.78
2019-06-15T09:05:06.365Z,12.73
2019-06-15T09:07:35.391Z,13.13
2019-06-15T09:10:04.832Z,13.07
2019-06-15T09:12:33.776Z,14.75
2019-06-15T09:15:02.765Z,13.98
2019-06-15T09:17:32.121Z,13.83
2019-06-15T09:20:13.955Z,13.35
2019-06-15T09:22:43.007Z,14.47
2019-06-15T09:25:12.078Z,13.20
2019-06-15T09:27:41.950Z,13.43
2019-06-15T09:30:11.401Z,13.07
2019-06-15T09:32:40.403Z,13.48
2019-06-15T09:35:09.949Z,12.47
2019-06-15T09:37:39.081Z,12.55
2019-06-15T09:40:10.013Z,14.10
2019-06-15T09:42:38.941Z,13.80
2019-06-15T09:45:09.405Z,13.33
2019-06-15T09:47:38.587Z,12.70
2019-06-15T09:50:12.071Z,12.37
2019-06-15T09:52:41.221Z,13.83
2019-06-15T09:55:11.914Z,16.75
2019-06-15T09:57:40.983Z,15.43
2019-06-15T10:00:10.685Z,15.25
2019-06-15T10:02:39.893Z,14.07
2019-06-15T10:05:09.706Z,14.38
2019-06-15T10:07:38.795Z,15.23
2019-06-15T10:10:09.094Z,13.78
2019-06-15T10:12:38.447Z,18.07
2019-06-15T10:15:07.897Z,16.45
2019-06-15T10:17:37.053Z,16.20
2019-06-15T10:20:07.093Z,15.25
2019-06-15T10:22:36.221Z,17.17
2019-06-15T10:25:05.891Z,16.37
2019-06-15T10:27:35.263Z,14.73
2019-06-15T10:30:04.964Z,14.68
2019-06-15T10:32:33.971Z,13.65
2019-06-15T10:35:03.463Z,14.83
2019-06-15T10:37:32.702Z,14.20
2019-06-15T10:40:01.987Z,17.48
2019-06-15T10:42:31.029Z,20.32
2019-06-15T10:45:00.057Z,15.60
2019-06-15T10:47:29.193Z,19.30
2019-06-15T10:49:58.590Z,18.32
2019-06-15T10:52:27.878Z,15.58
2019-06-15T10:54:57.049Z,15.70
2019-06-15T10:57:26.432Z,15.80
2019-06-15T10:59:57.601Z,17.48
2019-06-15T11:02:26.483Z,17.02
2019-06-15T11:04:56.201Z,22.67
2019-06-15T11:07:25.642Z,19.98
2019-06-15T11:09:54.963Z,19.10
2019-06-15T11:12:24.414Z,18.45
2019-06-15T11:14:56.106Z,20.02
2019-06-15T11:17:25.302Z,15.65
2019-06-15T11:19:54.849Z,17.90
2019-06-15T11:22:23.988Z,16.73
2019-06-15T11:24:53.272Z,17.82
2019-06-15T11:27:22.770Z,16.73
2019-06-15T11:29:52.015Z,16.52
2019-06-15T11:32:27.187Z,18.42
2019-06-15T11:35:22.887Z,21.40
2019-06-15T11:38:01.854Z,17.48
2019-06-15T11:40:55.352Z,18.05
2019-06-15T11:43:24.841Z,16.15
2019-06-15T11:45:54.053Z,16.70
2019-06-15T11:48:23.314Z,14.90
2019-06-15T11:50:52.427Z,14.73
2019-06-15T11:53:21.530Z,14.20
2019-06-15T11:55:50.510Z,13.53
2019-06-15T11:58:19.422Z,13.62
2019-06-15T12:00:48.659Z,13.80
2019-06-15T12:03:17.626Z,13.75
2019-06-15T12:05:46.835Z,13.83
2019-06-15T12:08:15.923Z,13.72
2019-06-15T12:10:49.992Z,13.00
2019-06-15T12:13:19.089Z,12.58
2019-06-15T12:15:48.151Z,12.18
2019-06-15T12:18:17.408Z,11.93
2019-06-15T12:20:46.615Z,12.78
2019-06-15T12:23:15.772Z,13.40
2019-06-15T12:25:45.108Z,12.25
2019-06-15T12:28:14.245Z,12.58
2019-06-15T12:30:47.462Z,13.03
2019-06-15T12:33:14.829Z,14.03
2019-06-15T12:35:44.227Z,14.20
2019-06-15T12:38:13.252Z,13.32
2019-06-15T12:40:42.309Z,10.43
2019-06-15T12:43:11.306Z,8.43
2019-06-15T12:45:40.916Z,8.03
2019-06-15T12:48:09.944Z,8.88
2019-06-15T12:50:39.029Z,9.00
2019-06-15T12:53:08.637Z,8.38
2019-06-15T12:55:38.468Z,8.35
2019-06-15T12:58:07.942Z,9.00
2019-06-15T13:00:39.772Z,8.98
2019-06-15T13:03:10.179Z,9.23
2019-06-15T13:05:39.328Z,9.53
2019-06-15T13:08:08.492Z,9.20
2019-06-15T13:10:37.694Z,9.73
2019-06-15T13:13:06.673Z,9.95
2019-06-15T13:15:36.047Z,11.05
2019-06-15T13:18:06.639Z,16.10
2019-06-15T13:20:36.837Z,16.00
2019-06-15T13:23:05.923Z,10.72
2019-06-15T13:25:34.987Z,10.15
2019-06-15T13:28:03.968Z,10.40
2019-06-15T13:30:33.257Z,10.03
2019-06-15T13:33:02.355Z,9.90
2019-06-15T13:35:31.342Z,9.45
2019-06-15T13:38:00.349Z,10.53
2019-06-15T13:40:29.868Z,10.00
2019-06-15T13:42:59.208Z,8.13
2019-06-15T13:45:28.363Z,7.22
2019-06-15T13:47:57.792Z,6.42
2019-06-15T13:50:27.021Z,5.90
2019-06-15T13:52:56.091Z,5.97
2019-06-15T13:55:25.129Z,5.75
2019-06-15T13:57:56.989Z,5.97
2019-06-15T14:00:26.123Z,6.15
2019-06-15T14:02:55.396Z,6.75
2019-06-15T14:05:24.489Z,6.20
2019-06-15T14:07:53.911Z,6.55
2019-06-15T14:10:23.232Z,6.10
2019-06-15T14:12:52.433Z,6.00
2019-06-15T14:15:21.618Z,5.75
2019-06-15T14:17:50.703Z,5.72
2019-06-15T14:20:19.851Z,5.97
2019-06-15T14:22:49.059Z,5.40
2019-06-15T14:25:18.142Z,6.08
2019-06-15T14:27:47.369Z,5.67
2019-06-15T14:30:16.777Z,5.50
2019-06-15T14:32:46.050Z,5.42
2019-06-15T14:35:15.849Z,5.40
2019-06-15T14:37:45.661Z,6.10
2019-06-15T14:40:16.685Z,5.90
2019-06-15T14:42:46.294Z,5.92
2019-06-15T14:45:16.764Z,5.75
2019-06-15T14:47:45.987Z,5.67
2019-06-15T14:50:15.210Z,6.00
2019-06-15T14:52:44.177Z,5.87
2019-06-15T14:55:13.669Z,6.15
2019-06-15T14:57:44.894Z,6.40
2019-06-15T15:00:16.666Z,5.92
2019-06-15T15:02:46.825Z,5.87
2019-06-15T15:05:17.934Z,6.03
2019-06-15T15:07:47.103Z,6.05
2019-06-15T15:10:16.461Z,6.97
2019-06-15T15:12:46.039Z,8.03
2019-06-15T15:15:17.074Z,7.62
2019-06-15T15:17:46.432Z,7.55
2019-06-15T15:20:17.325Z,7.85
2019-06-15T15:22:46.651Z,7.78
2019-06-15T15:25:16.879Z,7.08
2019-06-15T15:27:46.761Z,7.37
2019-06-15T15:30:27.177Z,6.90
2019-06-15T15:32:57.147Z,6.53
2019-06-15T15:35:26.836Z,6.15
2019-06-15T15:37:56.730Z,6.15
2019-06-15T15:40:27.409Z,6.60
2019-06-15T15:42:57.442Z,6.12
2019-06-15T15:45:26.647Z,5.15
2019-06-15T15:47:55.721Z,5.90
2019-06-15T15:50:26.315Z,5.37
2019-06-15T15:52:56.783Z,5.60
2019-06-15T15:55:31.442Z,5.20
2019-06-15T15:58:00.399Z,5.08
2019-06-15T16:00:33.560Z,5.10
2019-06-15T16:03:02.952Z,4.75
2019-06-15T16:05:36.816Z,4.45
2019-06-15T16:08:06.590Z,5.15
2019-06-15T16:10:37.346Z,4.92
2019-06-15T16:13:06.765Z,5.20
2019-06-15T16:15:37.157Z,5.40
2019-06-15T16:18:06.938Z,5.25
2019-06-15T16:20:37.057Z,6.08
2019-06-15T16:23:07.590Z,6.30
2019-06-15T16:25:37.350Z,6.08
2019-06-15T16:28:12.509Z,6.28
2019-06-15T16:31:01.618Z,5.92
2019-06-15T16:33:13.129Z,5.58
2019-06-15T16:35:42.338Z,5.65
2019-06-15T16:38:11.668Z,6.03
2019-06-15T16:40:40.958Z,6.00
2019-06-15T16:43:10.584Z,5.87
2019-06-15T16:45:39.930Z,5.97
2019-06-15T16:48:09.123Z,6.45
2019-06-15T16:50:38.084Z,7.00
2019-06-15T16:53:07.298Z,7.58
2019-06-15T16:55:36.981Z,4.80
2019-06-15T16:58:07.461Z,5.05
2019-06-15T17:00:37.324Z,4.78
2019-06-15T17:03:19.849Z,4.58
2019-06-15T17:05:37.567Z,5.08
2019-06-15T17:08:07.295Z,5.30
2019-06-15T17:10:41.010Z,4.92
2019-06-15T17:13:10.282Z,4.50
2019-06-15T17:15:39.628Z,5.22
2019-06-15T17:18:09.146Z,4.53
2019-06-15T17:20:47.672Z,4.87
2019-06-15T17:23:21.928Z,4.42
2019-06-15T17:25:54.527Z,4.47
2019-06-15T17:28:23.593Z,4.03
2019-06-15T17:30:56.228Z,3.80
2019-06-15T17:33:34.222Z,3.72
2019-06-15T17:36:02.653Z,5.70
2019-06-15T17:38:27.394Z,4.75
2019-06-15T17:40:57.291Z,4.17
2019-06-15T17:43:27.121Z,3.80
2019-06-15T17:45:58.540Z,3.58
2019-06-15T17:48:27.999Z,3.98
2019-06-15T17:50:57.371Z,4.47
2019-06-15T17:53:26.706Z,4.12
2019-06-15T17:55:56.175Z,4.90
2019-06-15T17:58:26.342Z,4.25
2019-06-15T18:00:57.533Z,4.90
2019-06-15T18:03:27.332Z,4.37
2019-06-15T18:05:58.299Z,4.12
2019-06-15T18:08:29.007Z,4.67
2019-06-15T18:10:58.925Z,4.10
2019-06-15T18:13:30.333Z,3.98
2019-06-15T18:16:00.555Z,3.90
2019-06-15T18:18:32.310Z,4.45
2019-06-15T18:21:02.069Z,4.05
2019-06-15T18:23:31.422Z,4.28
2019-06-15T18:26:00.455Z,3.67
2019-06-15T18:28:30.666Z,3.98
2019-06-15T18:30:59.641Z,4.03
2019-06-15T18:33:29.106Z,4.40
2019-06-15T18:35:58.457Z,4.20
2019-06-15T18:38:27.652Z,3.90
2019-06-15T18:40:56.564Z,3.77
2019-06-15T18:43:26.206Z,3.80
2019-06-15T18:45:56.835Z,3.90
2019-06-15T18:48:26.489Z,3.50
2019-06-15T18:50:56.104Z,3.72
2019-06-15T18:53:26.833Z,3.87
2019-06-15T18:55:56.370Z,3.63
2019-06-15T18:58:26.203Z,4.37
2019-06-15T19:00:55.782Z,3.70
2019-06-15T19:03:26.261Z,3.27
2019-06-15T19:05:56.963Z,3.50
2019-06-15T19:08:26.271Z,3.00
2019-06-15T19:10:56.226Z,3.50
2019-06-15T19:13:26.857Z,3.33
2019-06-15T19:15:57.262Z,3.40
2019-06-15T19:18:26.800Z,3.33
2019-06-15T19:20:56.294Z,3.57
2019-06-15T19:23:26.601Z,3.50
2019-06-15T19:25:57.419Z,3.63
2019-06-15T19:28:27.540Z,3.17
2019-06-15T19:30:58.795Z,3.30
2019-06-15T19:33:29.199Z,3.40
2019-06-15T19:35:58.414Z,3.50
2019-06-15T19:38:27.907Z,3.53
2019-06-15T19:40:57.831Z,3.33
2019-06-15T19:43:27.142Z,4.00
2019-06-15T19:45:56.683Z,3.93
2019-06-15T19:48:26.795Z,3.97
2019-06-15T19:50:56.793Z,3.87
2019-06-15T19:53:27.310Z,3.47
2019-06-15T19:55:57.369Z,3.80
2019-06-15T19:58:26.885Z,3.63
2019-06-15T20:00:58.750Z,3.70
2019-06-15T20:03:27.790Z,3.67
2019-06-15T20:05:57.116Z,3.53
2019-06-15T20:08:26.621Z,4.33
2019-06-15T20:10:56.306Z,3.80
2019-06-15T20:13:25.823Z,3.93
2019-06-15T20:15:57.116Z,3.80
2019-06-15T20:18:26.776Z,4.00
2019-06-15T20:20:56.665Z,4.10
2019-06-15T20:23:26.403Z,4.40
2019-06-15T20:25:56.607Z,4.00
2019-06-15T20:28:27.297Z,3.90
2019-06-15T20:30:57.137Z,4.27
2019-06-15T20:33:26.399Z,3.90
2019-06-15T20:35:57.404Z,4.17
2019-06-15T20:38:26.935Z,4.00
2019-06-15T20:40:56.653Z,3.63
2019-06-15T20:43:27.351Z,3.80
2019-06-15T20:45:56.634Z,3.90
2019-06-15T20:48:26.813Z,3.87
2019-06-15T20:50:56.700Z,3.53
2019-06-15T20:53:26.283Z,3.77
2019-06-15T20:55:57.029Z,3.53
2019-06-15T20:58:26.456Z,3.40
2019-06-15T21:00:56.315Z,3.40
2019-06-15T21:03:26.815Z,3.50
2019-06-15T21:05:57.246Z,3.93
2019-06-15T21:08:26.806Z,3.40
2019-06-15T21:10:56.365Z,3.80
2019-06-15T21:13:26.456Z,3.60
2019-06-15T21:15:56.783Z,3.20
2019-06-15T21:18:26.586Z,3.40
2019-06-15T21:20:56.225Z,3.63
2019-06-15T21:23:26.807Z,3.17
2019-06-15T21:25:57.179Z,2.83
2019-06-15T21:28:27.302Z,2.37
2019-06-15T21:30:56.615Z,2.10
2019-06-15T21:33:26.512Z,2.13
2019-06-15T21:35:56.815Z,2.30
2019-06-15T21:38:26.497Z,1.93
2019-06-15T21:40:57.017Z,2.30
2019-06-15T21:43:26.628Z,2.13
2019-06-15T21:45:57.078Z,2.00
2019-06-15T21:48:26.939Z,1.83
2019-06-15T21:50:59.292Z,1.87
2019-06-15T21:53:27.090Z,1.93
2019-06-15T21:55:56.366Z,1.90
2019-06-15T21:58:27.181Z,1.73
2019-06-15T22:01:22.449Z,1.67
2019-06-15T22:03:51.439Z,1.50
2019-06-15T22:06:20.574Z,1.60
2019-06-15T22:08:49.614Z,1.73
2019-06-15T22:11:18.705Z,1.80
2019-06-15T22:13:47.813Z,1.83
2019-06-15T22:16:17.215Z,1.93
2019-06-15T22:18:47.410Z,2.00
2019-06-15T22:21:17.033Z,1.67
2019-06-15T22:23:47.534Z,1.43
2019-06-15T22:26:17.188Z,1.50
2019-06-15T22:28:47.116Z,1.40
2019-06-15T22:31:17.087Z,1.37
2019-06-15T22:33:47.244Z,1.33
2019-06-15T22:36:24.905Z,1.47
2019-06-15T22:38:47.572Z,1.20
2019-06-15T22:41:16.845Z,1.10
2019-06-15T22:43:46.376Z,1.27
2019-06-15T22:46:16.628Z,1.10
2019-06-15T22:48:46.979Z,1.50
2019-06-15T22:51:17.008Z,1.40
2019-06-15T22:53:47.177Z,1.37
2019-06-15T22:56:17.269Z,1.60
2019-06-15T22:58:46.683Z,1.40
2019-06-15T23:01:16.858Z,1.17
2019-06-15T23:03:46.771Z,1.57
2019-06-15T23:06:16.351Z,1.50
2019-06-15T23:08:46.987Z,1.70
2019-06-15T23:11:17.530Z,1.30
2019-06-15T23:13:47.233Z,1.17
2019-06-15T23:16:16.594Z,0.87
2019-06-15T23:18:46.729Z,1.10
2019-06-15T23:21:17.296Z,0.87
2019-06-15T23:23:47.168Z,1.10
2019-06-15T23:26:16.712Z,1.17
2019-06-15T23:28:46.717Z,1.00
2019-06-15T23:31:16.701Z,0.90
2019-06-15T23:33:46.767Z,1.10
2019-06-15T23:36:21.697Z,1.00
2019-06-15T23:38:50.646Z,1.10
2019-06-15T23:41:19.699Z,1.10
2019-06-15T23:43:48.915Z,1.00
2019-06-15T23:46:18.630Z,1.00
2019-06-15T23:48:47.681Z,0.90
2019-06-15T23:51:17.105Z,0.93
2019-06-15T23:53:46.394Z,1.00
2019-06-15T23:56:15.466Z,0.80
2019-06-15T23:58:46.343Z,1.00
